createdAt,value
2022-10-31T00:01:06.447Z,16.92
2022-10-31T00:06:19.149Z,16.91
2022-10-31T00:11:22.551Z,16.89
2022-10-31T00:16:26.058Z,16.87
2022-10-31T00:21:29.471Z,16.85
2022-10-31T00:26:32.893Z,16.81
2022-10-31T00:31:36.333Z,16.80
2022-10-31T00:36:39.756Z,16.78
2022-10-31T00:41:43.137Z,16.76
2022-10-31T00:46:46.573Z,16.74
2022-10-31T00:51:50.339Z,16.71
2022-10-31T00:56:53.775Z,16.68
2022-10-31T01:01:57.227Z,16.66
2022-10-31T01:07:00.763Z,16.64
2022-10-31T01:12:06.157Z,16.64
2022-10-31T01:17:09.707Z,16.60
2022-10-31T01:22:13.208Z,16.59
2022-10-31T01:27:16.580Z,16.59
2022-10-31T01:32:20.065Z,16.57
2022-10-31T01:37:23.434Z,16.55
2022-10-31T01:42:26.981Z,16.54
2022-10-31T01:47:30.358Z,16.53
2022-10-31T01:52:33.717Z,16.54
2022-10-31T01:57:37.101Z,16.52
2022-10-31T02:02:40.664Z,16.50
2022-10-31T02:07:44.314Z,16.50
2022-10-31T02:12:47.796Z,16.49
2022-10-31T02:17:51.148Z,16.47
2022-10-31T02:22:54.528Z,16.42
2022-10-31T02:27:58.141Z,16.43
2022-10-31T02:33:02.141Z,16.41
2022-10-31T02:38:05.919Z,16.40
2022-10-31T02:43:09.310Z,16.41
2022-10-31T02:48:12.709Z,16.37
2022-10-31T02:53:16.091Z,16.36
2022-10-31T03:03:27.722Z,16.34
2022-10-31T03:08:31.072Z,16.31
2022-10-31T03:13:34.465Z,16.28
2022-10-31T03:18:38.023Z,16.28
2022-10-31T03:23:41.466Z,16.24
2022-10-31T03:28:44.829Z,16.23
2022-10-31T03:33:48.189Z,16.23
2022-10-31T03:38:51.555Z,16.21
2022-10-31T03:43:54.992Z,16.18
2022-10-31T03:48:58.337Z,16.17
2022-10-31T03:54:01.724Z,16.16
2022-10-31T03:59:05.088Z,16.15
2022-10-31T04:04:08.471Z,16.14
2022-10-31T04:09:11.819Z,16.12
2022-10-31T04:14:17.213Z,16.10
2022-10-31T04:19:21.181Z,16.07
2022-10-31T04:24:24.564Z,16.06
2022-10-31T04:29:28.012Z,16.05
2022-10-31T04:34:31.417Z,16.03
2022-10-31T04:39:34.760Z,16.01
2022-10-31T04:44:38.122Z,16.00
2022-10-31T04:49:41.483Z,16.00
2022-10-31T04:54:44.833Z,15.99
2022-10-31T04:59:48.317Z,15.98
2022-10-31T05:04:51.692Z,15.96
2022-10-31T05:09:55.186Z,15.95
2022-10-31T05:14:58.584Z,15.94
2022-10-31T05:20:02.003Z,15.90
2022-10-31T05:25:05.402Z,15.90
2022-10-31T05:30:08.862Z,15.87
2022-10-31T05:35:12.313Z,15.88
2022-10-31T05:40:15.648Z,15.88
2022-10-31T05:45:19.004Z,15.85
2022-10-31T05:50:22.381Z,15.83
2022-10-31T05:55:26.691Z,15.84
2022-10-31T06:00:30.064Z,15.85
2022-10-31T06:05:33.427Z,15.85
2022-10-31T06:10:37.354Z,15.87
2022-10-31T06:15:40.732Z,15.86
2022-10-31T06:20:44.135Z,15.85
2022-10-31T06:25:47.546Z,15.84
2022-10-31T06:30:50.920Z,15.86
2022-10-31T06:35:54.408Z,15.84
2022-10-31T06:40:57.772Z,15.87
2022-10-31T06:46:01.230Z,15.91
2022-10-31T06:51:04.739Z,15.95
2022-10-31T06:56:08.117Z,15.97
2022-10-31T07:01:11.623Z,15.98
2022-10-31T07:06:23.529Z,16.02
2022-10-31T07:11:27.005Z,16.09
2022-10-31T07:16:30.513Z,16.27
2022-10-31T07:21:33.882Z,17.06
2022-10-31T07:26:37.414Z,17.67
2022-10-31T07:31:40.879Z,16.71
2022-10-31T07:36:44.282Z,16.59
2022-10-31T07:41:47.669Z,16.75
2022-10-31T07:46:51.091Z,16.81
2022-10-31T07:51:54.524Z,16.97
2022-10-31T07:56:57.879Z,16.86
2022-10-31T08:02:01.470Z,16.98
2022-10-31T08:07:04.852Z,16.78
2022-10-31T08:12:08.218Z,17.35
2022-10-31T08:17:11.577Z,18.43
2022-10-31T08:22:16.990Z,18.70
2022-10-31T08:27:20.374Z,18.30
2022-10-31T08:32:23.757Z,17.32
2022-10-31T08:37:27.121Z,17.19
2022-10-31T08:42:30.485Z,17.18
2022-10-31T08:47:33.852Z,17.29
2022-10-31T08:52:59.266Z,17.35
2022-10-31T08:58:01.134Z,17.51
2022-10-31T09:03:04.828Z,17.49
2022-10-31T09:08:13.096Z,17.34
2022-10-31T09:13:20.448Z,16.97
2022-10-31T09:18:23.966Z,17.12
2022-10-31T09:23:27.314Z,17.09
2022-10-31T09:28:30.718Z,17.10
2022-10-31T09:33:34.197Z,16.95
2022-10-31T09:38:37.559Z,16.92
2022-10-31T09:43:41.117Z,16.97
2022-10-31T09:48:44.742Z,16.93
2022-10-31T09:53:48.142Z,16.96
2022-10-31T09:58:51.518Z,16.94
2022-10-31T10:03:54.868Z,16.90
2022-10-31T10:08:58.235Z,16.95
2022-10-31T10:14:01.617Z,16.90
2022-10-31T10:19:04.996Z,16.93
2022-10-31T10:24:08.475Z,16.92
2022-10-31T10:29:11.846Z,17.05
2022-10-31T10:34:15.309Z,16.98
2022-10-31T10:39:18.660Z,17.03
2022-10-31T10:44:22.022Z,17.09
2022-10-31T10:49:25.390Z,17.19
2022-10-31T10:54:28.860Z,17.13
2022-10-31T10:59:32.289Z,17.33
2022-10-31T11:04:35.643Z,17.28
2022-10-31T11:09:39.008Z,17.23
2022-10-31T11:14:42.365Z,17.23
2022-10-31T11:19:45.832Z,17.25
2022-10-31T11:24:49.282Z,17.23
2022-10-31T11:29:55.697Z,17.19
2022-10-31T11:35:03.375Z,17.18
2022-10-31T11:40:06.780Z,17.19
2022-10-31T11:45:10.188Z,17.12
2022-10-31T11:50:13.542Z,17.18
2022-10-31T11:55:16.961Z,17.17
2022-10-31T12:00:20.443Z,17.15
2022-10-31T12:05:24.071Z,17.14
2022-10-31T12:10:27.464Z,17.10
2022-10-31T12:15:30.832Z,17.11
2022-10-31T12:20:34.181Z,17.07
2022-10-31T12:25:37.543Z,17.12
2022-10-31T12:30:40.915Z,17.13
2022-10-31T12:35:44.434Z,17.02
2022-10-31T12:40:47.808Z,17.00
2022-10-31T12:45:51.504Z,17.05
2022-10-31T12:50:54.861Z,17.01
2022-10-31T12:55:58.359Z,16.97
2022-10-31T13:01:01.799Z,16.96
2022-10-31T13:06:05.595Z,17.12
2022-10-31T13:11:09.004Z,17.23
2022-10-31T13:16:12.406Z,17.24
2022-10-31T13:21:15.825Z,17.31
2022-10-31T13:26:19.186Z,17.29
2022-10-31T13:31:22.663Z,17.14
2022-10-31T13:36:26.129Z,17.08
2022-10-31T13:41:32.203Z,17.04
2022-10-31T13:46:35.670Z,17.02
2022-10-31T13:51:40.134Z,17.12
2022-10-31T13:56:43.488Z,17.21
2022-10-31T14:01:47.286Z,17.36
2022-10-31T14:06:50.808Z,17.29
2022-10-31T14:11:54.501Z,17.31
2022-10-31T14:16:58.320Z,17.29
2022-10-31T14:22:01.694Z,17.27
2022-10-31T14:27:05.119Z,17.21
2022-10-31T14:32:12.273Z,17.25
2022-10-31T14:37:16.729Z,17.24
2022-10-31T14:42:20.335Z,17.18
2022-10-31T14:47:23.716Z,17.27
2022-10-31T14:52:27.077Z,17.29
2022-10-31T14:57:30.725Z,17.27
2022-10-31T15:02:35.762Z,17.28
2022-10-31T15:07:41.095Z,17.41
2022-10-31T15:12:44.517Z,17.46
2022-10-31T15:17:50.209Z,17.40
2022-10-31T15:22:53.744Z,17.38
2022-10-31T15:27:57.174Z,17.26
2022-10-31T15:33:00.599Z,17.28
2022-10-31T15:38:05.288Z,17.24
2022-10-31T15:43:08.949Z,17.18
2022-10-31T15:48:12.346Z,17.32
2022-10-31T15:53:15.773Z,17.30
2022-10-31T15:58:19.274Z,17.32
2022-10-31T16:03:22.720Z,17.18
2022-10-31T16:08:26.289Z,17.10
2022-10-31T16:13:29.701Z,17.07
2022-10-31T16:18:33.087Z,17.03
2022-10-31T16:23:36.506Z,17.08
2022-10-31T16:28:40.372Z,17.08
2022-10-31T16:33:45.017Z,17.04
2022-10-31T16:38:48.407Z,17.05
2022-10-31T16:43:52.615Z,17.19
2022-10-31T16:48:56.202Z,17.09
2022-10-31T16:53:59.637Z,16.99
2022-10-31T16:59:03.060Z,16.97
2022-10-31T17:04:06.428Z,16.85
2022-10-31T17:09:09.797Z,16.88
2022-10-31T17:14:13.172Z,17.00
2022-10-31T17:19:16.692Z,17.00
2022-10-31T17:24:20.311Z,16.99
2022-10-31T17:29:23.711Z,17.01
2022-10-31T17:34:27.179Z,17.01
2022-10-31T17:39:30.704Z,17.06
2022-10-31T17:44:34.137Z,17.09
2022-10-31T17:49:37.525Z,17.04
2022-10-31T17:54:40.951Z,17.04
2022-10-31T17:59:44.328Z,17.20
2022-10-31T18:04:47.764Z,17.09
2022-10-31T18:09:51.305Z,17.05
2022-10-31T18:14:54.739Z,17.00
2022-10-31T18:19:58.137Z,16.99
2022-10-31T18:25:02.283Z,16.97
2022-10-31T18:30:06.224Z,17.04
2022-10-31T18:35:09.648Z,17.00
2022-10-31T18:40:13.313Z,16.97
2022-10-31T18:45:32.643Z,16.76
2022-10-31T18:50:40.110Z,16.90
2022-10-31T18:55:47.245Z,17.01
2022-10-31T19:00:53.597Z,16.98
2022-10-31T19:05:57.674Z,17.01
2022-10-31T19:11:01.120Z,17.05
2022-10-31T19:16:04.766Z,17.06
2022-10-31T19:21:08.225Z,17.03
2022-10-31T19:26:11.728Z,16.99
2022-10-31T19:31:15.140Z,16.97
2022-10-31T19:36:19.164Z,16.96
2022-10-31T19:41:22.602Z,16.96
2022-10-31T19:46:52.402Z,16.95
2022-10-31T19:51:49.493Z,16.94
2022-10-31T19:56:52.912Z,16.93
2022-10-31T20:01:56.405Z,16.93
2022-10-31T20:06:59.788Z,16.91
2022-10-31T20:12:03.282Z,16.90
2022-10-31T20:17:06.692Z,16.90
2022-10-31T20:22:11.000Z,16.90
2022-10-31T20:27:14.694Z,16.94
2022-10-31T20:32:18.091Z,16.89
2022-10-31T20:37:21.588Z,16.85
2022-10-31T20:42:25.095Z,16.92
2022-10-31T20:47:28.477Z,16.91
2022-10-31T20:52:31.868Z,16.90
2022-10-31T20:57:35.227Z,16.86
2022-10-31T21:02:38.823Z,16.85
2022-10-31T21:07:42.354Z,16.85
2022-10-31T21:12:45.780Z,16.85
2022-10-31T21:17:49.212Z,16.85
2022-10-31T21:22:54.611Z,16.83
2022-10-31T21:27:58.237Z,16.83
2022-10-31T21:33:01.789Z,16.80
2022-10-31T21:38:05.147Z,16.77
2022-10-31T21:43:08.638Z,16.76
2022-10-31T21:48:12.024Z,16.75
2022-10-31T21:53:33.288Z,16.74
2022-10-31T21:58:38.562Z,16.74
2022-10-31T22:03:42.224Z,16.72
2022-10-31T22:08:45.690Z,16.71
2022-10-31T22:13:49.131Z,16.78
2022-10-31T22:18:52.885Z,16.82
2022-10-31T22:23:56.257Z,16.79
2022-10-31T22:29:01.247Z,16.79
2022-10-31T22:34:04.631Z,16.70
2022-10-31T22:39:08.013Z,16.68
2022-10-31T22:44:11.379Z,16.65
2022-10-31T22:49:15.248Z,16.63
2022-10-31T22:54:18.819Z,16.62
2022-10-31T22:59:22.215Z,16.60
2022-10-31T23:04:25.603Z,16.58
2022-10-31T23:09:30.069Z,16.57
2022-10-31T23:14:33.508Z,16.55
2022-10-31T23:19:36.893Z,16.55
2022-10-31T23:24:40.262Z,16.55
2022-10-31T23:29:44.299Z,16.54
2022-10-31T23:34:47.699Z,16.51
2022-10-31T23:39:51.062Z,16.50
2022-10-31T23:44:54.458Z,16.49
2022-10-31T23:49:58.001Z,16.48
2022-10-31T23:55:01.380Z,16.45
